Time;durP1;ratioP1;P1;durP2;ratioP2;P2;SDS_P1;SDS_P2;PMS_P1;PMS_P2;Temp;Humidity;BMP_temperature;BMP_pressure;BME280_temperature;BME280_humidity;BME280_pressure;Samples;Min_cycle;Max_cycle;Signal;HPM_P1;HPM_P2
2021/03/14 00:02:27;;;;;;;10.20;6.13;;;8.10;73.70;;;;;;6300761;28;20489;-61
2021/03/14 00:05:39;;;;;;;9.23;8.23;;;8.10;73.70;;;;;;6301034;28;20492;-60
2021/03/14 00:08:41;;;;;;;11.93;8.70;;;8.00;74.70;;;;;;6300611;28;20466;-62
2021/03/14 00:11:43;;;;;;;7.97;7.17;;;8.00;74.50;;;;;;6300700;28;20465;-62
2021/03/14 00:14:46;;;;;;;9.03;7.87;;;7.90;74.90;;;;;;6300427;28;20484;-63
2021/03/14 00:17:48;;;;;;;9.20;7.40;;;7.80;75.90;;;;;;6299801;28;20469;-61
2021/03/14 00:20:51;;;;;;;10.00;8.20;;;7.80;76.70;;;;;;6300747;28;20466;-64
2021/03/14 00:23:53;;;;;;;9.53;8.50;;;7.70;76.50;;;;;;6300311;28;20492;-61
2021/03/14 00:26:55;;;;;;;7.23;6.63;;;7.60;77.50;;;;;;6300337;28;20487;-63
2021/03/14 00:29:58;;;;;;;9.27;8.33;;;7.70;78.20;;;;;;6300309;28;20465;-62
2021/03/14 00:33:01;;;;;;;8.27;7.57;;;7.60;78.10;;;;;;6300391;28;20462;-61
2021/03/14 00:36:06;;;;;;;7.57;6.83;;;7.50;78.70;;;;;;6299870;28;20486;-62
2021/03/14 00:39:08;;;;;;;9.40;7.70;;;7.50;79.70;;;;;;6300158;28;20469;-62
2021/03/14 00:42:11;;;;;;;9.03;7.40;;;7.50;80.00;;;;;;6299788;28;20478;-61
2021/03/14 00:45:15;;;;;;;9.57;7.20;;;7.40;80.00;;;;;;6299989;28;20484;-61
2021/03/14 00:48:18;;;;;;;9.23;7.00;;;7.40;80.00;;;;;;6299516;28;20472;-61
2021/03/14 00:51:20;;;;;;;10.80;7.40;;;7.40;80.10;;;;;;6299561;28;20476;-61
2021/03/14 00:54:22;;;;;;;9.73;8.47;;;7.40;80.70;;;;;;6299658;28;20467;-62
2021/03/14 00:57:25;;;;;;;9.90;7.30;;;7.40;81.30;;;;;;6298811;28;20461;-61
2021/03/14 01:00:28;;;;;;;9.97;7.70;;;7.30;82.30;;;;;;6298187;28;20462;-62
2021/03/14 01:03:30;;;;;;;13.13;6.60;;;7.40;81.80;;;;;;6298755;28;20488;-63
2021/03/14 01:06:33;;;;;;;7.63;6.63;;;7.40;82.30;;;;;;6296718;28;20533;-64
2021/03/14 01:09:35;;;;;;;12.17;7.67;;;7.50;88.50;;;;;;6297101;28;20481;-62
2021/03/14 01:12:38;;;;;;;9.00;7.63;;;7.50;86.90;;;;;;6297059;28;20461;-62
2021/03/14 01:15:41;;;;;;;8.27;7.43;;;7.50;86.50;;;;;;6296363;28;20528;-62
2021/03/14 01:18:44;;;;;;;8.83;7.33;;;7.60;85.80;;;;;;6297239;28;20484;-63
2021/03/14 01:21:46;;;;;;;9.40;8.23;;;7.70;86.00;;;;;;6288665;28;20479;-62
2021/03/14 01:24:49;;;;;;;9.53;8.07;;;7.70;87.10;;;;;;6299326;28;20982;-61
2021/03/14 01:27:52;;;;;;;10.80;8.73;;;7.70;87.10;;;;;;6302755;28;20530;-62
2021/03/14 01:30:55;;;;;;;8.27;7.03;;;7.80;86.50;;;;;;6307268;28;20530;-61
2021/03/14 01:33:57;;;;;;;9.60;6.90;;;7.80;84.40;;;;;;6307836;28;20465;-61
2021/03/14 01:37:00;;;;;;;10.27;7.30;;;7.70;83.70;;;;;;6307290;28;20488;-61
2021/03/14 01:40:03;;;;;;;9.57;8.33;;;7.70;83.70;;;;;;6307616;28;20476;-61
2021/03/14 01:43:05;;;;;;;8.93;7.77;;;7.80;83.70;;;;;;6307457;28;20480;-61
2021/03/14 01:46:09;;;;;;;9.77;7.73;;;7.80;83.30;;;;;;6307367;28;20500;-61
2021/03/14 01:49:12;;;;;;;7.40;6.73;;;7.80;82.80;;;;;;6307213;28;20976;-62
2021/03/14 01:52:15;;;;;;;6.80;6.10;;;7.80;83.30;;;;;;6307746;28;20437;-61
2021/03/14 01:55:19;;;;;;;8.00;6.93;;;7.70;83.90;;;;;;6307081;28;20953;-61
2021/03/14 01:58:23;;;;;;;9.07;7.60;;;7.80;83.30;;;;;;6307200;28;20445;-61
2021/03/14 02:01:26;;;;;;;6.90;6.17;;;7.70;83.60;;;;;;6305407;28;20445;-61
2021/03/14 02:04:28;;;;;;;7.43;6.73;;;7.70;83.40;;;;;;6305151;28;20569;-61
2021/03/14 02:07:31;;;;;;;8.73;7.10;;;7.70;83.50;;;;;;6305408;28;20457;-61
2021/03/14 02:10:36;;;;;;;7.00;6.33;;;7.80;83.40;;;;;;6304838;28;20833;-61
2021/03/14 02:13:51;;;;;;;7.13;6.43;;;7.90;83.50;;;;;;6305566;28;20472;-61
2021/03/14 02:17:02;;;;;;;8.53;7.60;;;7.90;83.30;;;;;;6307235;28;20526;-61
2021/03/14 02:20:17;;;;;;;7.57;6.23;;;8.00;82.90;;;;;;6307323;28;20619;-61
2021/03/14 02:23:31;;;;;;;7.70;6.57;;;8.00;82.80;;;;;;6306750;28;20608;-61
2021/03/14 02:26:38;;;;;;;7.80;6.70;;;8.10;82.70;;;;;;6306858;28;20976;-61
2021/03/14 02:29:43;;;;;;;7.93;6.70;;;8.10;82.80;;;;;;6307582;28;20485;-61
2021/03/14 02:32:47;;;;;;;7.20;6.43;;;8.10;82.60;;;;;;6306935;28;20964;-61
2021/03/14 02:35:52;;;;;;;8.30;6.87;;;8.10;82.50;;;;;;6307051;28;20477;-61
2021/03/14 02:38:55;;;;;;;8.43;6.53;;;8.20;82.50;;;;;;6305056;28;20805;-61
2021/03/14 02:41:59;;;;;;;7.40;6.70;;;8.20;82.40;;;;;;6302982;28;20457;-61
2021/03/14 02:45:04;;;;;;;7.50;6.70;;;8.30;82.30;;;;;;6302991;28;20469;-61
2021/03/14 02:48:08;;;;;;;7.70;7.00;;;8.30;82.20;;;;;;6303220;28;20473;-61
2021/03/14 02:51:10;;;;;;;7.37;6.70;;;8.30;82.00;;;;;;6303330;28;20474;-61
2021/03/14 02:54:16;;;;;;;8.30;7.20;;;8.40;82.10;;;;;;6302959;28;20492;-61
2021/03/14 02:57:21;;;;;;;7.23;6.47;;;8.40;82.30;;;;;;6302449;28;20562;-61
2021/03/14 03:00:26;;;;;;;13.53;6.80;;;8.50;82.50;;;;;;6303192;28;20476;-61
2021/03/14 03:03:29;;;;;;;11.43;6.90;;;8.50;82.50;;;;;;6302527;28;20484;-61
2021/03/14 03:06:33;;;;;;;6.70;6.10;;;8.60;83.80;;;;;;6302497;28;20503;-61
2021/03/14 03:09:36;;;;;;;7.27;6.20;;;8.60;83.80;;;;;;6302293;28;20492;-62
2021/03/14 03:12:40;;;;;;;7.00;6.30;;;8.60;84.80;;;;;;6302347;28;20476;-61
2021/03/14 03:15:44;;;;;;;7.13;6.30;;;8.60;86.50;;;;;;6302408;28;20484;-61
2021/03/14 03:18:46;;;;;;;6.97;6.00;;;8.50;86.90;;;;;;6302562;28;20469;-61
2021/03/14 03:21:51;;;;;;;9.83;7.00;;;8.50;87.60;;;;;;6302136;28;20469;-61
2021/03/14 03:24:53;;;;;;;6.33;5.73;;;8.40;89.10;;;;;;6301845;28;20492;-61
2021/03/14 03:27:56;;;;;;;7.53;5.50;;;8.40;89.70;;;;;;6292550;28;20799;-61
2021/03/14 03:31:00;;;;;;;7.33;6.63;;;8.40;90.10;;;;;;6302350;28;20488;-61
2021/03/14 03:34:02;;;;;;;6.57;6.00;;;8.40;90.60;;;;;;6301845;28;20465;-61
2021/03/14 03:37:04;;;;;;;5.80;5.30;;;8.30;90.70;;;;;;6301727;28;20469;-61
2021/03/14 03:40:09;;;;;;;6.00;5.40;;;8.40;90.70;;;;;;6301700;28;20804;-61
2021/03/14 03:43:17;;;;;;;5.50;5.00;;;8.30;90.90;;;;;;6301237;28;20821;-61
2021/03/14 03:46:21;;;;;;;5.83;5.30;;;8.30;91.00;;;;;;6301056;28;20450;-61
2021/03/14 03:49:28;;;;;;;6.27;5.60;;;8.40;91.50;;;;;;6301249;28;20758;-61
2021/03/14 03:52:31;;;;;;;6.40;5.20;;;8.40;91.60;;;;;;6300546;28;20479;-61
2021/03/14 03:55:33;;;;;;;7.83;6.63;;;8.50;91.90;;;;;;6300522;28;20966;-61
2021/03/14 03:58:36;;;;;;;8.07;5.97;;;8.40;91.90;;;;;;6301261;28;20465;-61
2021/03/14 04:01:43;;;;;;;9.57;5.70;;;8.40;91.40;;;;;;6301041;28;21011;-61
2021/03/14 04:04:46;;;;;;;7.37;5.90;;;8.40;91.00;;;;;;6300899;28;20785;-60
2021/03/14 04:07:50;;;;;;;6.23;5.63;;;8.30;91.10;;;;;;6300985;28;20483;-60
2021/03/14 04:10:53;;;;;;;7.00;6.00;;;8.40;91.50;;;;;;6300818;28;20469;-61
2021/03/14 04:13:57;;;;;;;7.47;6.27;;;8.30;92.00;;;;;;6301475;28;20476;-61
2021/03/14 04:17:02;;;;;;;5.33;4.50;;;8.20;92.30;;;;;;6300524;28;20941;-61
2021/03/14 04:20:08;;;;;;;4.03;3.63;;;8.10;93.40;;;;;;6301104;28;20457;-61
2021/03/14 04:23:13;;;;;;;3.00;2.80;;;8.20;94.10;;;;;;6301565;28;20462;-61
2021/03/14 04:26:18;;;;;;;2.33;2.00;;;8.20;94.60;;;;;;6300136;28;20470;-60
2021/03/14 04:29:21;;;;;;;1.57;1.47;;;8.20;94.60;;;;;;6291298;28;20475;-61
2021/03/14 04:32:24;;;;;;;2.10;2.00;;;8.20;95.10;;;;;;6300794;28;20474;-61
2021/03/14 04:35:28;;;;;;;1.60;1.50;;;8.20;95.50;;;;;;6300076;28;20973;-61
2021/03/14 04:38:30;;;;;;;1.50;1.40;;;8.20;95.90;;;;;;6300177;28;20476;-61
2021/03/14 04:41:34;;;;;;;1.40;1.30;;;8.30;96.00;;;;;;6300286;28;20479;-61
2021/03/14 04:44:37;;;;;;;2.37;1.40;;;8.30;96.20;;;;;;6300096;28;20465;-61
2021/03/14 04:47:42;;;;;;;1.90;1.53;;;8.30;96.20;;;;;;6300251;28;20465;-61
2021/03/14 04:50:44;;;;;;;1.30;1.03;;;8.30;96.40;;;;;;6300507;28;20484;-60
2021/03/14 04:53:47;;;;;;;2.17;1.63;;;8.40;96.30;;;;;;6300023;28;20461;-60
2021/03/14 04:56:51;;;;;;;1.37;1.17;;;8.30;96.40;;;;;;6299732;28;20484;-61
2021/03/14 04:59:53;;;;;;;1.07;0.97;;;8.40;96.40;;;;;;6299574;28;20469;-61
2021/03/14 05:03:00;;;;;;;1.87;1.57;;;8.40;96.40;;;;;;6298965;28;20822;-60
2021/03/14 05:06:03;;;;;;;1.73;1.20;;;8.40;96.50;;;;;;6299724;28;20481;-61
2021/03/14 05:09:07;;;;;;;1.77;1.43;;;8.50;96.70;;;;;;6299913;28;20980;-61
2021/03/14 05:12:12;;;;;;;1.90;1.80;;;8.60;96.80;;;;;;6299641;28;20476;-60
2021/03/14 05:15:17;;;;;;;1.10;1.00;;;8.50;96.80;;;;;;6299621;28;20474;-61
2021/03/14 05:18:21;;;;;;;1.70;1.60;;;8.50;97.00;;;;;;6299737;28;20480;-61
2021/03/14 05:21:23;;;;;;;1.53;1.43;;;8.50;97.20;;;;;;6299523;28;20473;-61
2021/03/14 05:24:27;;;;;;;1.67;1.50;;;8.40;97.20;;;;;;6299273;28;20484;-61
2021/03/14 05:27:30;;;;;;;2.03;1.43;;;8.30;97.80;;;;;;6299285;28;20465;-61
2021/03/14 05:30:34;;;;;;;2.00;1.63;;;8.30;97.90;;;;;;6299452;28;20469;-60
2021/03/14 05:33:38;;;;;;;2.77;1.93;;;8.30;98.20;;;;;;6295081;28;20575;-60
2021/03/14 05:36:40;;;;;;;1.50;1.40;;;8.40;99.00;;;;;;6299551;28;20984;-60
2021/03/14 05:39:45;;;;;;;2.10;1.90;;;8.30;98.80;;;;;;6299196;28;20827;-60
2021/03/14 05:42:50;;;;;;;2.87;2.43;;;8.40;99.10;;;;;;6299501;28;20485;-61
2021/03/14 05:45:53;;;;;;;2.20;1.80;;;8.40;99.30;;;;;;6299356;28;20484;-61
2021/03/14 05:48:56;;;;;;;1.80;1.70;;;8.40;99.50;;;;;;6299145;28;20480;-61
2021/03/14 05:51:59;;;;;;;1.80;1.70;;;8.40;99.80;;;;;;6299014;28;20477;-61
2021/03/14 05:55:02;;;;;;;1.83;1.73;;;8.40;99.60;;;;;;6299234;28;20469;-61
2021/03/14 05:58:04;;;;;;;2.03;1.50;;;8.40;99.40;;;;;;6298611;28;20479;-61
2021/03/14 06:01:11;;;;;;;1.80;1.70;;;8.40;99.60;;;;;;6298921;28;20481;-61
2021/03/14 06:04:16;;;;;;;2.30;2.10;;;8.40;99.90;;;;;;6298988;28;20530;-61
2021/03/14 06:07:18;;;;;;;3.27;2.50;;;8.40;99.90;;;;;;6299273;28;20461;-61
2021/03/14 06:10:20;;;;;;;3.23;2.00;;;8.30;99.90;;;;;;6299160;28;20446;-61
2021/03/14 06:13:23;;;;;;;1.20;1.17;;;8.30;99.90;;;;;;6298940;28;20441;-61
2021/03/14 06:16:25;;;;;;;2.00;1.90;;;8.20;99.90;;;;;;6302708;28;20476;-61
2021/03/14 06:19:31;;;;;;;2.70;1.33;;;8.20;99.90;;;;;;6303934;28;20509;-62
2021/03/14 06:22:33;;;;;;;1.30;1.20;;;8.30;99.90;;;;;;6303543;28;20467;-63
2021/03/14 06:25:37;;;;;;;4.23;1.27;;;8.30;99.90;;;;;;6302793;28;20461;-62
2021/03/14 06:28:39;;;;;;;0.90;0.90;;;8.30;99.90;;;;;;6302831;28;20943;-62
2021/03/14 06:31:44;;;;;;;0.83;0.83;;;8.30;99.90;;;;;;6303131;28;20465;-62
2021/03/14 06:34:47;;;;;;;1.57;1.20;;;8.40;99.90;;;;;;6303322;28;20484;-62
2021/03/14 06:37:49;;;;;;;1.50;0.93;;;8.30;99.90;;;;;;6303456;28;20475;-62
2021/03/14 06:40:54;;;;;;;1.10;1.10;;;8.30;99.90;;;;;;6303118;28;20469;-62
2021/03/14 06:43:58;;;;;;;1.37;1.00;;;8.30;99.90;;;;;;6303164;28;20465;-62
2021/03/14 06:47:01;;;;;;;1.30;1.00;;;8.30;99.90;;;;;;6302963;28;20566;-62
2021/03/14 06:50:05;;;;;;;1.80;1.70;;;8.30;99.90;;;;;;6302525;28;20921;-62
2021/03/14 06:53:15;;;;;;;1.37;1.27;;;8.20;99.90;;;;;;6302650;28;20469;-62
2021/03/14 06:56:26;;;;;;;1.90;1.77;;;8.00;99.90;;;;;;6302658;28;20485;-62
2021/03/14 06:59:31;;;;;;;2.10;1.40;;;8.00;99.90;;;;;;6303169;28;20464;-61
2021/03/14 07:02:33;;;;;;;1.60;1.50;;;8.00;99.90;;;;;;6302758;28;20476;-62
2021/03/14 07:05:37;;;;;;;1.30;1.20;;;8.00;99.90;;;;;;6302280;28;20566;-63
2021/03/14 07:08:39;;;;;;;7.10;6.40;;;7.90;99.90;;;;;;6302098;28;20469;-62
2021/03/14 07:11:43;;;;;;;2.33;2.13;;;7.80;99.90;;;;;;6302109;28;20793;-62
2021/03/14 07:14:46;;;;;;;2.67;2.47;;;7.70;99.90;;;;;;6302278;28;20478;-62
2021/03/14 07:17:51;;;;;;;4.20;3.80;;;7.50;99.90;;;;;;6302258;28;20483;-62
2021/03/14 07:20:55;;;;;;;2.50;2.17;;;7.50;99.90;;;;;;6303056;28;20559;-62
2021/03/14 07:24:02;;;;;;;2.33;2.13;;;7.60;99.90;;;;;;6302001;28;20995;-62
2021/03/14 07:27:06;;;;;;;1.77;1.67;;;7.60;99.90;;;;;;6301647;28;20808;-64
2021/03/14 07:30:09;;;;;;;1.53;1.33;;;7.60;99.90;;;;;;6302078;28;20470;-64
2021/03/14 07:33:12;;;;;;;1.87;1.50;;;7.70;99.90;;;;;;6302021;28;20470;-64
2021/03/14 07:36:18;;;;;;;2.80;1.47;;;7.70;99.90;;;;;;6302163;28;20553;-64
2021/03/14 07:39:20;;;;;;;2.67;1.63;;;7.70;99.90;;;;;;6301839;28;20465;-64
2021/03/14 07:42:23;;;;;;;1.80;1.30;;;7.60;99.90;;;;;;6291663;28;20462;-63
2021/03/14 07:45:25;;;;;;;1.60;1.30;;;7.60;99.90;;;;;;6301338;28;20479;-64
2021/03/14 07:48:28;;;;;;;1.50;1.40;;;7.50;99.90;;;;;;6301580;28;20473;-64
2021/03/14 07:51:32;;;;;;;1.60;1.47;;;7.50;99.90;;;;;;6301203;28;20466;-63
2021/03/14 07:54:40;;;;;;;1.93;1.83;;;7.40;99.90;;;;;;6301173;28;20462;-64
2021/03/14 07:57:44;;;;;;;1.50;1.20;;;7.40;99.90;;;;;;6301265;28;20477;-64
2021/03/14 08:00:46;;;;;;;1.07;1.07;;;7.50;99.90;;;;;;6301318;28;20489;-64
2021/03/14 08:03:49;;;;;;;1.60;1.50;;;7.40;99.90;;;;;;6301102;28;20496;-63
2021/03/14 08:06:52;;;;;;;1.10;1.10;;;7.20;99.90;;;;;;6301103;28;20469;-65
2021/03/14 08:09:54;;;;;;;1.90;1.77;;;7.20;99.90;;;;;;6301176;28;20484;-64
2021/03/14 08:12:57;;;;;;;1.40;1.30;;;7.40;99.90;;;;;;6300849;28;20470;-64
2021/03/14 08:16:00;;;;;;;3.70;1.97;;;7.50;99.90;;;;;;6300747;28;20469;-64
2021/03/14 08:19:11;;;;;;;2.60;1.77;;;7.60;99.90;;;;;;6300412;28;20534;-64
2021/03/14 08:22:46;;;;;;;1.87;1.67;;;7.70;99.90;;;;;;6300398;28;20913;-64
2021/03/14 08:25:50;;;;;;;3.90;3.60;;;7.70;99.90;;;;;;6300030;28;20457;-64
2021/03/14 08:28:53;;;;;;;5.60;3.60;;;7.80;99.90;;;;;;6300493;28;20881;-63
2021/03/14 08:31:56;;;;;;;2.70;2.50;;;7.70;99.90;;;;;;6300831;28;20909;-64
2021/03/14 08:34:59;;;;;;;2.87;2.03;;;7.70;99.90;;;;;;6300326;28;20534;-63
2021/03/14 08:38:43;;;;;;;2.00;1.80;;;7.70;99.90;;;;;;6299423;28;20969;-64
2021/03/14 08:41:51;;;;;;;1.67;1.57;;;7.70;99.90;;;;;;6262820;28;20480;-63
2021/03/14 08:44:54;;;;;;;1.90;1.80;;;7.70;99.90;;;;;;6293056;28;20582;-64
2021/03/14 08:47:56;;;;;;;2.07;1.87;;;7.80;99.90;;;;;;6297972;28;20485;-63
2021/03/14 08:50:58;;;;;;;2.30;1.87;;;7.80;99.90;;;;;;6299336;28;20477;-63
2021/03/14 08:54:03;;;;;;;3.00;2.77;;;8.00;99.90;;;;;;6299173;28;20476;-63
2021/03/14 08:57:08;;;;;;;2.50;2.30;;;8.10;99.90;;;;;;6299465;28;20481;-63
2021/03/14 09:00:15;;;;;;;2.80;2.60;;;8.20;99.90;;;;;;6299912;28;20470;-63
2021/03/14 09:03:17;;;;;;;3.23;1.87;;;8.30;99.90;;;;;;6300233;28;20488;-63
2021/03/14 09:06:28;;;;;;;2.57;2.37;;;8.20;99.90;;;;;;6299502;28;20569;-63
2021/03/14 09:09:30;;;;;;;3.40;2.43;;;8.30;99.90;;;;;;6300013;28;20469;-64
2021/03/14 09:12:34;;;;;;;2.30;2.20;;;8.30;99.90;;;;;;6299591;28;20469;-63
2021/03/14 09:15:36;;;;;;;2.20;2.03;;;8.30;99.90;;;;;;6299224;28;20478;-62
2021/03/14 09:18:47;;;;;;;2.50;2.30;;;8.40;99.90;;;;;;6299451;28;20484;-63
2021/03/14 09:21:50;;;;;;;2.83;2.50;;;8.50;99.90;;;;;;6298447;28;20461;-63
2021/03/14 09:24:55;;;;;;;2.80;2.60;;;8.50;99.90;;;;;;6299210;28;20627;-62
2021/03/14 09:28:00;;;;;;;2.30;2.10;;;8.60;99.90;;;;;;6299250;28;20915;-63
2021/03/14 09:31:02;;;;;;;2.40;2.00;;;8.60;99.90;;;;;;6299504;28;20466;-63
2021/03/14 09:34:05;;;;;;;3.23;2.60;;;8.60;99.90;;;;;;6298989;28;20461;-64
2021/03/14 09:37:07;;;;;;;3.80;3.50;;;8.70;99.90;;;;;;6299920;28;20477;-65
2021/03/14 09:40:18;;;;;;;3.60;3.30;;;8.80;99.90;;;;;;6299354;28;20483;-64
2021/03/14 09:43:23;;;;;;;4.00;3.60;;;8.80;99.90;;;;;;6299226;28;20461;-63
2021/03/14 09:46:25;;;;;;;3.30;3.00;;;8.80;99.90;;;;;;6299062;28;20949;-63
2021/03/14 09:49:29;;;;;;;2.53;2.30;;;8.70;99.90;;;;;;6302802;28;20538;-63
2021/03/14 09:52:31;;;;;;;3.87;2.77;;;8.60;99.50;;;;;;6304447;28;20530;-63
2021/03/14 09:55:53;;;;;;;3.20;3.00;;;8.60;99.70;;;;;;6304370;28;20474;-63
2021/03/14 09:59:00;;;;;;;2.57;2.37;;;8.60;99.70;;;;;;6309203;28;20479;-63
2021/03/14 10:02:05;;;;;;;3.10;2.83;;;8.50;99.90;;;;;;6304458;28;20472;-63
2021/03/14 10:05:09;;;;;;;5.30;2.63;;;8.40;99.90;;;;;;6304101;28;20465;-63
2021/03/14 10:08:17;;;;;;;3.80;3.50;;;8.40;99.90;;;;;;6303907;28;20468;-63
2021/03/14 10:11:20;;;;;;;3.83;3.53;;;8.30;99.90;;;;;;6303241;28;20826;-63
2021/03/14 10:14:23;;;;;;;3.50;3.20;;;8.30;99.90;;;;;;6302613;28;20468;-64
2021/03/14 10:17:25;;;;;;;4.67;3.37;;;8.30;99.90;;;;;;6302954;28;20469;-64
2021/03/14 10:20:28;;;;;;;2.77;2.57;;;8.30;99.90;;;;;;6302478;28;20562;-64
2021/03/14 10:23:30;;;;;;;3.20;2.90;;;8.30;99.90;;;;;;6302789;28;20546;-63
2021/03/14 10:26:33;;;;;;;4.43;4.00;;;8.30;99.90;;;;;;6302670;28;20469;-63
2021/03/14 10:29:38;;;;;;;6.07;3.27;;;8.40;99.90;;;;;;6303074;28;20499;-64
2021/03/14 10:32:45;;;;;;;3.40;3.10;;;8.40;99.90;;;;;;6297703;28;20469;-63
2021/03/14 10:36:00;;;;;;;3.27;2.97;;;8.40;99.90;;;;;;6303255;28;20470;-66
2021/03/14 10:39:05;;;;;;;4.17;3.77;;;8.40;99.90;;;;;;6300623;28;20796;-63
2021/03/14 10:42:08;;;;;;;4.00;3.63;;;8.30;99.90;;;;;;6302581;28;20465;-62
2021/03/14 10:45:13;;;;;;;4.80;4.27;;;8.20;99.90;;;;;;6302780;28;20544;-63
2021/03/14 10:48:16;;;;;;;3.23;3.03;;;8.30;99.90;;;;;;6302876;28;20484;-63
2021/03/14 10:51:18;;;;;;;3.83;3.53;;;8.40;99.90;;;;;;6302787;28;20461;-63
2021/03/14 10:54:23;;;;;;;2.80;2.60;;;8.50;99.90;;;;;;6292913;28;20461;-63
2021/03/14 10:57:25;;;;;;;4.20;3.60;;;8.70;99.90;;;;;;6302096;28;20461;-63
2021/03/14 11:00:29;;;;;;;5.67;3.93;;;8.70;99.90;;;;;;6302214;28;20469;-63
2021/03/14 11:03:36;;;;;;;4.17;3.87;;;8.80;99.90;;;;;;6302854;28;20484;-63
2021/03/14 11:06:39;;;;;;;3.83;3.53;;;8.80;99.90;;;;;;6301944;28;20476;-63
2021/03/14 11:09:41;;;;;;;3.50;3.20;;;8.90;99.90;;;;;;6299951;28;20503;-62
2021/03/14 11:12:47;;;;;;;4.20;3.90;;;9.00;99.90;;;;;;6301154;28;20956;-63
2021/03/14 11:16:05;;;;;;;4.30;3.90;;;9.10;99.90;;;;;;6277183;28;20525;-62
2021/03/14 11:19:08;;;;;;;4.30;3.90;;;9.10;99.90;;;;;;6277171;28;20470;-62
2021/03/14 11:22:13;;;;;;;4.40;4.00;;;9.10;99.90;;;;;;6277393;28;20485;-64
2021/03/14 11:25:15;;;;;;;5.53;4.50;;;9.30;99.90;;;;;;6276462;28;20970;-63
2021/03/14 11:28:18;;;;;;;3.83;3.50;;;9.30;99.80;;;;;;6276880;28;20894;-64
2021/03/14 11:31:21;;;;;;;4.00;2.77;;;9.40;99.80;;;;;;6276939;28;20443;-64
2021/03/14 11:34:26;;;;;;;4.10;3.70;;;9.30;99.10;;;;;;6277111;28;20438;-63
2021/03/14 11:37:28;;;;;;;2.70;2.50;;;9.30;98.50;;;;;;6276777;28;20565;-64
2021/03/14 11:40:31;;;;;;;3.07;2.87;;;9.10;98.40;;;;;;6277177;28;20472;-63
2021/03/14 11:43:36;;;;;;;2.73;2.63;;;9.00;99.10;;;;;;6277057;28;20600;-63
2021/03/14 11:46:39;;;;;;;3.23;3.00;;;8.90;98.90;;;;;;6276626;28;20805;-62
2021/03/14 11:49:42;;;;;;;3.50;3.30;;;8.90;99.20;;;;;;6276693;28;20810;-63
2021/03/14 11:52:49;;;;;;;3.70;3.40;;;8.90;99.80;;;;;;6277031;28;20481;-62
2021/03/14 11:55:51;;;;;;;3.57;3.27;;;8.70;99.90;;;;;;6271674;28;20467;-62
2021/03/14 11:58:54;;;;;;;3.53;3.23;;;8.80;99.90;;;;;;6276335;28;20954;-62
2021/03/14 12:01:57;;;;;;;4.57;3.80;;;8.70;99.90;;;;;;6276041;28;20484;-63
2021/03/14 12:04:59;;;;;;;4.40;4.00;;;8.80;99.90;;;;;;6282314;28;20480;-64
2021/03/14 12:08:02;;;;;;;5.00;4.50;;;8.80;99.90;;;;;;6299309;28;20461;-64
2021/03/14 12:11:06;;;;;;;6.17;5.40;;;8.90;99.90;;;;;;6299225;28;20465;-63
2021/03/14 12:14:08;;;;;;;7.67;5.57;;;8.90;99.90;;;;;;6300065;28;20830;-64
2021/03/14 12:17:11;;;;;;;5.67;5.17;;;8.90;99.90;;;;;;6300422;28;20488;-63
2021/03/14 12:20:17;;;;;;;5.40;5.00;;;9.00;99.90;;;;;;6300722;28;20488;-64
2021/03/14 12:23:19;;;;;;;5.50;5.00;;;9.00;99.90;;;;;;6300599;28;20473;-63
2021/03/14 12:26:22;;;;;;;6.03;5.53;;;9.10;99.90;;;;;;6298753;28;20469;-64
2021/03/14 12:29:24;;;;;;;5.00;4.60;;;9.10;99.90;;;;;;6298726;28;20502;-63
2021/03/14 12:32:27;;;;;;;5.23;4.53;;;9.20;99.90;;;;;;6298396;28;20814;-63
2021/03/14 12:35:30;;;;;;;4.83;4.43;;;9.20;99.90;;;;;;6296374;28;20465;-63
2021/03/14 12:38:32;;;;;;;4.00;3.70;;;9.30;99.30;;;;;;6299947;28;20472;-64
2021/03/14 12:41:35;;;;;;;5.17;4.63;;;9.40;99.10;;;;;;6298395;28;20956;-64
2021/03/14 12:44:37;;;;;;;4.43;3.90;;;9.40;98.70;;;;;;6299730;28;20473;-63
2021/03/14 12:47:41;;;;;;;3.53;3.30;;;9.40;98.40;;;;;;6297874;28;20474;-63
2021/03/14 12:50:44;;;;;;;4.33;3.93;;;9.50;98.30;;;;;;6296668;28;20642;-63
2021/03/14 12:53:46;;;;;;;3.50;3.20;;;9.60;98.20;;;;;;6297531;28;20972;-63
2021/03/14 12:56:50;;;;;;;4.33;3.93;;;9.70;98.10;;;;;;6297522;28;20472;-63
2021/03/14 12:59:52;;;;;;;4.03;3.73;;;9.70;98.00;;;;;;6297709;28;20466;-63
2021/03/14 13:02:55;;;;;;;3.93;3.63;;;9.80;97.90;;;;;;6289794;28;20818;-64
2021/03/14 13:05:58;;;;;;;4.83;4.27;;;9.80;97.80;;;;;;6299338;28;20627;-62
2021/03/14 13:09:00;;;;;;;5.00;4.60;;;9.90;97.60;;;;;;6299989;28;20479;-64
2021/03/14 13:12:05;;;;;;;5.43;4.67;;;10.00;96.70;;;;;;6298180;28;20991;-64
2021/03/14 13:15:09;;;;;;;4.60;4.20;;;10.00;96.70;;;;;;6301432;28;21006;-64
2021/03/14 13:18:12;;;;;;;6.40;5.07;;;9.90;97.10;;;;;;6302771;28;21009;-63
2021/03/14 13:21:15;;;;;;;5.17;4.77;;;9.80;98.10;;;;;;6299408;28;20476;-63
2021/03/14 13:24:17;;;;;;;5.30;4.80;;;9.60;98.10;;;;;;6299816;28;20473;-64
2021/03/14 13:27:19;;;;;;;6.60;6.00;;;9.50;98.70;;;;;;6299482;28;20473;-64
2021/03/14 13:30:22;;;;;;;6.80;6.10;;;9.40;99.30;;;;;;6299236;28;20550;-63
2021/03/14 13:33:26;;;;;;;5.97;5.47;;;9.30;99.80;;;;;;6299327;28;20973;-64
2021/03/14 13:36:28;;;;;;;5.90;5.30;;;9.20;99.90;;;;;;6298904;28;20477;-64
2021/03/14 13:39:31;;;;;;;5.83;5.33;;;9.10;99.90;;;;;;6299165;28;20465;-63
2021/03/14 13:42:33;;;;;;;5.80;5.30;;;9.00;99.90;;;;;;6299077;28;20473;-63
2021/03/14 13:45:38;;;;;;;5.47;5.00;;;9.00;99.90;;;;;;6299000;28;20519;-64
2021/03/14 13:48:44;;;;;;;5.53;5.03;;;9.00;99.90;;;;;;6299051;28;20477;-64
2021/03/14 13:51:46;;;;;;;5.13;4.63;;;9.00;99.90;;;;;;6299159;28;20465;-63
2021/03/14 13:54:54;;;;;;;5.23;4.73;;;9.00;99.90;;;;;;6298789;28;20484;-64
2021/03/14 13:57:59;;;;;;;4.93;4.63;;;9.00;99.50;;;;;;6298631;28;20996;-63
2021/03/14 14:01:03;;;;;;;6.23;5.73;;;9.00;99.70;;;;;;6298937;28;20477;-64
2021/03/14 14:04:09;;;;;;;7.27;5.00;;;9.00;99.90;;;;;;6298980;28;20582;-63
2021/03/14 14:07:11;;;;;;;5.93;5.43;;;9.00;99.90;;;;;;6298673;28;20935;-63
2021/03/14 14:10:14;;;;;;;5.00;4.60;;;8.90;99.90;;;;;;6298978;28;20812;-63
2021/03/14 14:13:17;;;;;;;5.27;4.50;;;8.70;99.90;;;;;;6298724;28;20474;-63
2021/03/14 14:16:19;;;;;;;5.03;4.63;;;8.70;99.90;;;;;;6298444;28;20454;-62
2021/03/14 14:19:22;;;;;;;5.03;4.63;;;8.70;99.90;;;;;;6299040;28;20453;-62
2021/03/14 14:22:25;;;;;;;4.60;4.20;;;8.70;99.90;;;;;;6299141;28;20530;-63
2021/03/14 14:25:27;;;;;;;4.53;4.23;;;8.70;99.90;;;;;;6297998;28;20485;-63
2021/03/14 14:28:30;;;;;;;5.27;4.87;;;8.60;99.90;;;;;;6298915;28;20456;-63
2021/03/14 14:31:32;;;;;;;6.13;4.00;;;8.50;99.90;;;;;;6298684;28;20513;-62
2021/03/14 14:34:38;;;;;;;4.23;3.93;;;8.50;99.90;;;;;;6298838;28;20445;-63
2021/03/14 14:37:40;;;;;;;6.03;5.40;;;8.50;99.90;;;;;;6303566;28;20463;-63
2021/03/14 14:40:43;;;;;;;5.17;4.67;;;8.50;99.90;;;;;;6302841;28;20550;-63
2021/03/14 14:43:45;;;;;;;5.20;4.80;;;8.50;99.90;;;;;;6303187;28;20479;-63
2021/03/14 14:46:47;;;;;;;6.10;5.60;;;8.60;99.90;;;;;;6303153;28;20476;-63
2021/03/14 14:49:51;;;;;;;5.47;5.07;;;8.50;99.90;;;;;;6302916;28;20467;-63
2021/03/14 14:52:53;;;;;;;5.43;4.93;;;8.30;99.90;;;;;;6304298;28;20484;-63
2021/03/14 14:55:55;;;;;;;5.20;4.80;;;8.30;99.90;;;;;;6302825;28;20469;-60
2021/03/14 14:58:58;;;;;;;3.67;3.37;;;8.20;99.90;;;;;;6302855;28;20484;-61
2021/03/14 15:02:00;;;;;;;4.83;4.53;;;8.10;99.90;;;;;;6302470;28;20977;-62
2021/03/14 15:05:07;;;;;;;5.40;4.67;;;8.10;99.90;;;;;;6302786;28;20491;-63
2021/03/14 15:08:09;;;;;;;4.77;4.37;;;7.90;99.90;;;;;;6298976;28;20476;-63
2021/03/14 15:11:12;;;;;;;4.70;4.30;;;7.80;99.90;;;;;;6303539;28;20566;-63
2021/03/14 15:14:14;;;;;;;5.03;4.60;;;7.80;99.90;;;;;;6302613;28;20469;-66
2021/03/14 15:17:16;;;;;;;4.40;4.10;;;7.90;99.90;;;;;;6302449;28;20480;-64
2021/03/14 15:20:21;;;;;;;4.80;4.40;;;7.90;99.90;;;;;;6301654;28;20815;-65
2021/03/14 15:23:23;;;;;;;4.70;4.30;;;7.90;99.90;;;;;;6283286;28;20987;-63
2021/03/14 15:26:26;;;;;;;5.93;5.27;;;8.00;99.90;;;;;;6289868;28;20473;-62
2021/03/14 15:29:29;;;;;;;5.70;5.27;;;8.00;99.90;;;;;;6277573;28;20551;-63
2021/03/14 15:32:31;;;;;;;4.93;4.53;;;8.00;99.90;;;;;;6301172;28;20957;-62
2021/03/14 15:35:35;;;;;;;5.13;4.63;;;8.10;99.90;;;;;;6301338;28;20619;-62
2021/03/14 15:38:37;;;;;;;5.63;5.20;;;8.10;99.90;;;;;;6300426;28;20484;-66
2021/03/14 15:41:39;;;;;;;8.87;5.40;;;8.10;99.90;;;;;;6299592;28;20957;-63
2021/03/14 15:44:42;;;;;;;5.10;4.70;;;8.20;99.90;;;;;;6299099;28;20469;-63
2021/03/14 15:47:44;;;;;;;6.13;5.37;;;8.30;99.90;;;;;;6299503;28;20473;-62
2021/03/14 15:50:47;;;;;;;5.80;5.30;;;8.30;99.90;;;;;;6299838;28;20497;-63
2021/03/14 15:53:50;;;;;;;5.17;4.77;;;8.20;99.90;;;;;;6299953;28;20488;-64
2021/03/14 15:56:52;;;;;;;5.07;4.57;;;8.30;99.90;;;;;;6299354;28;20479;-64
2021/03/14 15:59:54;;;;;;;10.20;7.37;;;8.30;99.90;;;;;;6299828;28;20478;-62
2021/03/14 16:02:57;;;;;;;6.70;6.00;;;8.30;99.90;;;;;;6297467;28;20603;-63
2021/03/14 16:06:00;;;;;;;6.40;5.73;;;8.30;99.90;;;;;;6299284;28;20473;-64
2021/03/14 16:09:02;;;;;;;7.13;6.10;;;8.30;99.90;;;;;;6299306;28;20550;-64
2021/03/14 16:12:07;;;;;;;5.57;4.90;;;8.30;99.90;;;;;;6298985;28;20804;-64